Time;durP1;ratioP1;P1;durP2;ratioP2;P2;SDS_P1;SDS_P2;PMS_P1;PMS_P2;Temp;Humidity;BMP_temperature;BMP_pressure;BME280_temperature;BME280_humidity;BME280_pressure;Samples;Min_cycle;Max_cycle;Signal;HPM_P1;HPM_P2
2021/12/08 00:01:58;;;;;;;48.57;23.27;;;;;;;2.59;nan;100113.78;5116828;28;20477;-68
2021/12/08 00:04:24;;;;;;;54.53;24.60;;;;;;;2.38;nan;100114.47;5141864;22;20233;-72
2021/12/08 00:06:49;;;;;;;49.37;23.67;;;;;;;2.32;nan;100065.47;5137019;27;20196;-73
2021/12/08 00:09:46;;;;;;;46.90;21.67;;;;;;;2.00;nan;100111.22;5137921;27;20197;-72
2021/12/08 00:15:09;;;;;;;43.53;18.67;;;;;;;1.63;nan;100131.59;5102623;27;20441;-72
2021/12/08 00:17:34;;;;;;;50.07;22.17;;;;;;;2.31;nan;100120.84;5136983;27;20204;-72
2021/12/08 00:20:03;;;;;;;52.83;23.10;;;;;;;1.93;nan;100128.09;5136962;27;20565;-72
2021/12/08 00:22:29;;;;;;;48.40;22.30;;;;;;;1.86;nan;100122.16;5119245;27;20259;-72
2021/12/08 00:24:54;;;;;;;46.07;20.77;;;;;;;1.78;nan;100110.09;5118406;27;20643;-72
2021/12/08 00:27:19;;;;;;;50.57;22.63;;;;;;;1.89;nan;100089.63;5136989;27;20184;-72
2021/12/08 00:29:45;;;;;;;50.13;20.73;;;;;;;1.91;nan;100092.22;5136749;27;20564;-72
2021/12/08 00:32:10;;;;;;;48.53;23.20;;;;;;;2.15;nan;100118.66;5137008;27;20255;-71
2021/12/08 00:34:36;;;;;;;48.00;20.93;;;;;;;2.10;nan;100094.22;5136948;27;20228;-71
2021/12/08 00:37:02;;;;;;;57.93;23.60;;;;;;;2.40;nan;100054.69;5135443;27;20175;-72
2021/12/08 00:39:27;;;;;;;46.40;23.77;;;;;;;2.12;nan;100120.50;5135437;27;20166;-71
2021/12/08 00:41:52;;;;;;;45.27;23.57;;;;;;;2.05;nan;100084.75;5135234;27;20172;-72
2021/12/08 00:44:18;;;;;;;43.07;20.33;;;;;;;1.72;nan;100097.13;5136368;27;20698;-71
2021/12/08 00:46:44;;;;;;;50.57;21.70;;;;;;;1.86;nan;100101.09;5135427;27;20212;-71
2021/12/08 00:49:11;;;;;;;47.50;21.83;;;;;;;2.18;nan;100080.81;5135369;27;20284;-71
2021/12/08 00:51:36;;;;;;;50.97;23.03;;;;;;;1.99;nan;100104.22;5135456;27;20432;-72
2021/12/08 00:54:02;;;;;;;50.00;22.67;;;;;;;1.90;nan;100072.91;5136381;27;20409;-72
2021/12/08 00:56:27;;;;;;;42.50;20.23;;;;;;;2.02;nan;100046.22;5134988;27;20198;-72
2021/12/08 00:58:53;;;;;;;44.53;20.60;;;;;;;1.81;nan;100045.09;5136453;27;20172;-72
2021/12/08 01:01:18;;;;;;;53.40;23.77;;;;;;;1.90;nan;100091.34;5117975;27;20182;-72
2021/12/08 01:03:45;;;;;;;44.83;21.07;;;;;;;1.65;nan;100074.53;5134990;27;20173;-72
2021/12/08 01:06:13;;;;;;;42.80;21.50;;;;;;;2.15;nan;100050.19;5134804;27;20200;-73
2021/12/08 01:08:38;;;;;;;40.20;18.90;;;;;;;2.08;nan;100079.41;5117724;27;20421;-72
2021/12/08 01:11:10;;;;;;;44.43;22.10;;;;;;;1.72;nan;100065.53;5117469;27;20993;-72
2021/12/08 01:13:35;;;;;;;44.73;21.60;;;;;;;1.59;nan;100037.88;5134956;27;20169;-72
2021/12/08 01:16:01;;;;;;;37.53;15.97;;;;;;;1.64;nan;100035.97;5135137;27;20790;-72
2021/12/08 01:18:28;;;;;;;56.20;24.77;;;;;;;2.69;nan;100048.50;5134948;27;20204;-72
2021/12/08 01:20:54;;;;;;;49.27;23.60;;;;;;;2.41;nan;100048.53;5117414;27;20222;-72
2021/12/08 01:23:20;;;;;;;44.30;21.73;;;;;;;1.72;nan;100044.50;5135716;27;20196;-71
2021/12/08 01:25:46;;;;;;;46.00;22.63;;;;;;;1.66;nan;100048.19;5134384;27;20465;-72
2021/12/08 01:28:11;;;;;;;34.70;17.70;;;;;;;1.53;nan;100025.78;5135491;27;20172;-72
2021/12/08 01:30:37;;;;;;;44.53;22.27;;;;;;;1.84;nan;100039.72;5134404;27;20196;-71
2021/12/08 01:33:03;;;;;;;42.37;21.20;;;;;;;1.97;nan;100045.50;5134303;27;20191;-72
2021/12/08 01:35:28;;;;;;;46.83;22.27;;;;;;;2.59;nan;99995.22;5134147;27;20196;-72
2021/12/08 01:37:53;;;;;;;39.90;19.83;;;;;;;2.09;nan;99973.19;5135524;27;20417;-73
2021/12/08 01:40:19;;;;;;;34.87;15.80;;;;;;;1.34;nan;99991.25;5134355;27;20176;-72
2021/12/08 01:42:47;;;;;;;38.00;19.73;;;;;;;2.00;nan;100007.69;5134009;27;20173;-72
2021/12/08 01:48:03;;;;;;;31.60;16.10;;;;;;;1.64;nan;99980.75;5134477;27;20242;-72
2021/12/08 01:50:29;;;;;;;43.63;21.70;;;;;;;2.07;nan;99967.09;5134033;27;20191;-73
2021/12/08 01:52:54;;;;;;;35.77;14.40;;;;;;;1.06;nan;99991.13;5133764;27;20409;-72
2021/12/08 01:55:20;;;;;;;39.23;19.63;;;;;;;1.67;nan;99994.66;5134938;27;20196;-71
2021/12/08 01:57:45;;;;;;;40.57;20.43;;;;;;;1.77;nan;99985.56;5133594;27;20180;-71
2021/12/08 02:00:16;;;;;;;42.17;20.40;;;;;;;1.89;nan;100005.41;5133797;27;20172;-73
2021/12/08 02:02:43;;;;;;;45.10;22.47;;;;;;;2.28;nan;100000.66;5134013;27;20238;-71
2021/12/08 02:05:09;;;;;;;37.67;18.30;;;;;;;1.97;nan;99977.06;5133460;27;20779;-72
2021/12/08 02:07:35;;;;;;;43.30;21.30;;;;;;;2.72;nan;99959.66;5134290;27;20179;-71
2021/12/08 02:10:02;;;;;;;41.37;20.73;;;;;;;1.97;nan;99966.56;5135001;27;20570;-72
2021/12/08 02:12:29;;;;;;;36.97;18.13;;;;;;;1.89;nan;99931.72;5134672;27;20174;-72
2021/12/08 02:14:54;;;;;;;37.60;19.80;;;;;;;2.07;nan;99972.38;5134847;27;20658;-72
2021/12/08 02:17:20;;;;;;;38.27;20.50;;;;;;;1.96;nan;99964.81;5133396;27;20212;-72
2021/12/08 02:19:45;;;;;;;32.87;16.13;;;;;;;1.42;nan;99926.13;5134957;27;20172;-72
2021/12/08 02:22:10;;;;;;;34.97;17.17;;;;;;;1.71;nan;99927.03;5133410;27;20212;-71
2021/12/08 02:24:36;;;;;;;39.00;17.40;;;;;;;1.44;nan;99929.56;5134504;27;20195;-71
2021/12/08 02:27:01;;;;;;;33.40;17.93;;;;;;;1.41;nan;99945.44;5116031;27;20215;-72
2021/12/08 02:29:37;;;;;;;35.37;17.37;;;;;;;1.92;nan;99946.56;5116001;27;20283;-72
2021/12/08 02:48:29;;;;;;;38.30;19.67;;;;;;;1.95;nan;99923.63;5133451;27;20391;-71
2021/12/08 02:50:55;;;;;;;39.93;20.10;;;;;;;1.95;nan;99913.09;5133015;27;20444;-72
2021/12/08 02:53:21;;;;;;;26.67;13.07;;;;;;;1.04;nan;99884.34;5132874;27;20175;-71
2021/12/08 02:55:46;;;;;;;41.37;20.10;;;;;;;1.53;nan;99913.53;5115656;28;20552;-71
2021/12/08 02:58:12;;;;;;;40.17;19.20;;;;;;;1.36;nan;99894.78;5133529;27;20172;-72
2021/12/08 03:00:45;;;;;;;35.93;20.27;;;;;;;2.38;nan;99891.47;5133013;28;20628;-71
2021/12/08 03:03:11;;;;;;;26.57;14.30;;;;;;;1.39;nan;99859.63;5133132;28;20161;-71
2021/12/08 03:05:36;;;;;;;34.70;19.60;;;;;;;1.91;nan;99886.94;5115645;28;20463;-72
2021/12/08 03:08:04;;;;;;;32.53;16.13;;;;;;;1.17;nan;99878.72;5115627;28;20187;-71
2021/12/08 03:10:32;;;;;;;30.50;17.10;;;;;;;1.32;nan;99882.63;5135562;27;20284;-72
2021/12/08 03:12:57;;;;;;;41.47;18.97;;;;;;;1.50;nan;99876.81;5137100;27;20954;-71
2021/12/08 03:15:23;;;;;;;39.97;20.07;;;;;;;1.90;nan;99882.59;5137278;27;20439;-71
2021/12/08 03:17:48;;;;;;;27.63;12.47;;;;;;;1.21;nan;99864.56;5136809;27;20267;-71
2021/12/08 03:20:20;;;;;;;41.70;21.07;;;;;;;1.71;nan;99877.03;5136896;27;20644;-71
2021/12/08 03:22:48;;;;;;;33.57;15.40;;;;;;;1.17;nan;99898.88;5120123;27;20240;-71
2021/12/08 03:25:17;;;;;;;41.87;20.10;;;;;;;1.41;nan;99865.69;5136945;27;20436;-72
2021/12/08 03:28:03;;;;;;;30.93;14.87;;;;;;;1.10;nan;99866.63;5120030;27;20507;-72
2021/12/08 03:30:34;;;;;;;35.43;19.03;;;;;;;1.33;nan;99876.47;5137097;27;20477;-71
2021/12/08 03:32:59;;;;;;;39.77;20.03;;;;;;;1.61;nan;99855.44;5136527;27;20903;-71
2021/12/08 03:35:25;;;;;;;33.03;18.67;;;;;;;0.98;nan;99834.59;5137969;27;20432;-71
2021/12/08 03:37:51;;;;;;;37.73;19.50;;;;;;;1.65;nan;99864.09;5136636;27;20210;-71
2021/12/08 03:40:23;;;;;;;43.30;21.93;;;;;;;1.53;nan;99871.47;5136482;27;20168;-72
2021/12/08 03:42:51;;;;;;;46.23;19.80;;;;;;;1.86;nan;99850.25;5136526;27;20619;-72
2021/12/08 03:45:25;;;;;;;37.17;16.93;;;;;;;1.14;nan;99835.88;5136776;27;20435;-72
2021/12/08 03:47:59;;;;;;;42.83;22.40;;;;;;;1.90;nan;99858.91;5137551;27;20468;-72
2021/12/08 03:50:24;;;;;;;42.53;18.83;;;;;;;1.39;nan;99821.06;5137197;27;20456;-71
2021/12/08 03:52:50;;;;;;;40.73;20.10;;;;;;;1.18;nan;99863.78;5138635;27;20468;-71
2021/12/08 03:55:15;;;;;;;38.73;21.50;;;;;;;1.49;nan;99826.91;5137499;27;20199;-71
2021/12/08 03:57:41;;;;;;;32.90;16.17;;;;;;;0.99;nan;99816.16;5136508;27;20169;-71
2021/12/08 04:00:16;;;;;;;42.53;21.93;;;;;;;1.88;nan;99849.28;5137497;27;20208;-71
2021/12/08 04:02:42;;;;;;;47.87;21.37;;;;;;;1.47;nan;99828.69;5137940;27;20259;-71
2021/12/08 04:05:08;;;;;;;42.10;21.97;;;;;;;1.73;nan;99835.75;5136483;27;20476;-71
2021/12/08 04:07:36;;;;;;;39.77;21.67;;;;;;;1.44;nan;99792.84;5119595;27;20709;-72
2021/12/08 04:10:01;;;;;;;39.10;20.97;;;;;;;1.45;nan;99826.13;5135806;27;20435;-71
2021/12/08 04:12:26;;;;;;;34.93;16.83;;;;;;;1.29;nan;99809.13;5137434;27;20423;-72
2021/12/08 04:14:56;;;;;;;41.33;21.77;;;;;;;1.90;nan;99828.19;5136938;27;20192;-71
2021/12/08 04:17:36;;;;;;;36.33;19.07;;;;;;;1.54;nan;99809.22;5135795;27;20164;-71
2021/12/08 04:20:20;;;;;;;31.10;16.57;;;;;;;1.41;nan;99813.97;5136102;27;20387;-71
2021/12/08 04:22:48;;;;;;;31.90;15.83;;;;;;;1.24;nan;99826.81;5135652;27;20427;-71
2021/12/08 04:25:21;;;;;;;32.03;17.43;;;;;;;1.39;nan;99846.50;5135877;27;20437;-70
2021/12/08 04:27:48;;;;;;;39.50;18.17;;;;;;;1.53;nan;99832.00;5136869;27;20430;-70
2021/12/08 04:30:18;;;;;;;35.90;18.87;;;;;;;1.73;nan;99831.34;5118307;27;20441;-71
2021/12/08 04:32:44;;;;;;;39.70;21.37;;;;;;;1.71;nan;99809.50;5136466;27;20846;-71
2021/12/08 04:35:10;;;;;;;33.63;17.23;;;;;;;1.26;nan;99814.47;5135439;27;20476;-72
2021/12/08 04:37:40;;;;;;;49.87;24.03;;;;;;;1.77;nan;99822.44;5136368;27;20516;-70
2021/12/08 04:40:50;;;;;;;44.33;21.77;;;;;;;1.72;nan;99792.81;5137103;27;20403;-70
2021/12/08 04:43:27;;;;;;;39.17;21.60;;;;;;;2.09;nan;99791.56;5129967;27;20433;-72
2021/12/08 04:49:24;;;;;;;37.83;18.43;;;;;;;1.46;nan;99811.19;5112129;27;20476;-72
2021/12/08 04:52:04;;;;;;;36.50;17.77;;;;;;;1.81;nan;99810.91;5135965;27;20419;-72
2021/12/08 05:01:09;;;;;;;42.37;20.10;;;;;;;1.83;nan;99829.28;5138152;27;20432;-72
2021/12/08 05:09:02;;;;;;;35.57;20.13;;;;;;;2.07;nan;99830.22;5137264;27;20919;-67
2021/12/08 05:11:31;;;;;;;42.13;21.97;;;;;;;2.16;nan;99814.13;5135537;27;20415;-67
2021/12/08 05:14:16;;;;;;;32.97;18.13;;;;;;;1.71;nan;99827.06;5136190;27;20173;-67
2021/12/08 05:16:43;;;;;;;34.53;17.27;;;;;;;1.48;nan;99827.78;5136749;27;20759;-73
2021/12/08 05:19:12;;;;;;;28.80;16.67;;;;;;;1.48;nan;99835.66;5148544;27;20181;-71
2021/12/08 05:21:44;;;;;;;30.37;14.27;;;;;;;1.41;nan;99792.09;5137365;27;20416;-72
2021/12/08 05:24:15;;;;;;;34.87;17.27;;;;;;;1.64;nan;99834.28;5135888;27;20494;-69
2021/12/08 05:26:46;;;;;;;37.80;19.93;;;;;;;1.74;nan;99805.91;5118822;27;20790;-71
2021/12/08 05:29:16;;;;;;;40.93;20.70;;;;;;;2.18;nan;99817.56;5136397;27;20441;-72
2021/12/08 05:31:42;;;;;;;30.50;14.50;;;;;;;1.38;nan;99829.84;5139190;27;20832;-71
2021/12/08 05:34:07;;;;;;;41.43;21.30;;;;;;;1.91;nan;99850.97;5137909;27;20408;-71
2021/12/08 05:36:33;;;;;;;32.00;16.33;;;;;;;1.32;nan;99832.69;5135659;27;20200;-71
2021/12/08 05:39:00;;;;;;;37.40;19.87;;;;;;;2.46;nan;99855.19;5134594;27;20660;-72
2021/12/08 05:41:31;;;;;;;35.13;19.10;;;;;;;2.13;nan;99836.16;5135042;27;20180;-72
2021/12/08 05:43:57;;;;;;;34.10;19.53;;;;;;;1.94;nan;99860.53;5117317;27;20412;-72
2021/12/08 05:46:26;;;;;;;26.67;14.97;;;;;;;1.05;nan;99841.41;5134170;27;20512;-72
2021/12/08 05:48:52;;;;;;;34.23;17.13;;;;;;;1.55;nan;99818.81;5136169;27;20172;-72
2021/12/08 05:51:25;;;;;;;34.63;16.97;;;;;;;1.30;nan;99813.47;5134116;27;20881;-71
2021/12/08 05:53:53;;;;;;;32.27;16.17;;;;;;;1.70;nan;99835.88;5135962;27;20420;-72
2021/12/08 05:56:19;;;;;;;27.93;14.93;;;;;;;1.06;nan;99841.34;5134084;27;20423;-72
2021/12/08 05:58:46;;;;;;;31.20;16.67;;;;;;;1.29;nan;99859.06;5134776;27;20179;-72
2021/12/08 06:01:27;;;;;;;40.30;21.10;;;;;;;2.35;nan;99851.22;5134374;27;20762;-71
2021/12/08 06:03:53;;;;;;;38.27;18.50;;;;;;;1.72;nan;99818.25;5134403;27;20412;-72
2021/12/08 06:06:21;;;;;;;28.60;14.47;;;;;;;1.39;nan;99833.34;5134943;27;20942;-71
2021/12/08 06:08:47;;;;;;;36.40;20.03;;;;;;;1.30;nan;99821.34;5116802;27;20183;-71
2021/12/08 06:11:14;;;;;;;37.03;17.97;;;;;;;1.83;nan;99850.31;5134050;27;20443;-71
2021/12/08 06:13:40;;;;;;;31.27;15.33;;;;;;;1.56;nan;99839.81;5134254;27;20427;-71
2021/12/08 06:16:06;;;;;;;35.00;17.47;;;;;;;1.40;nan;99821.91;5133724;27;20505;-71
2021/12/08 06:18:38;;;;;;;35.60;18.70;;;;;;;1.74;nan;99840.97;5133997;27;20445;-70
2021/12/08 06:21:07;;;;;;;38.87;18.37;;;;;;;1.72;nan;99868.25;5117413;27;20171;-71
2021/12/08 06:23:33;;;;;;;28.10;13.57;;;;;;;1.23;nan;99851.38;5133545;27;20416;-73
2021/12/08 06:25:59;;;;;;;36.37;19.47;;;;;;;1.98;nan;99851.59;5134661;27;20985;-70
2021/12/08 06:28:24;;;;;;;38.17;20.77;;;;;;;2.13;nan;99830.88;5134039;27;20169;-70
2021/12/08 06:30:49;;;;;;;29.63;15.83;;;;;;;0.84;nan;99806.13;5134685;27;20248;-71
2021/12/08 06:33:17;;;;;;;28.63;15.00;;;;;;;1.18;nan;99846.25;5133484;27;20189;-70
2021/12/08 06:35:45;;;;;;;35.47;18.53;;;;;;;2.00;nan;99847.16;5133378;27;20196;-71
2021/12/08 06:38:12;;;;;;;36.63;19.23;;;;;;;1.98;nan;99841.09;5133786;27;20417;-70
2021/12/08 06:40:40;;;;;;;37.53;18.93;;;;;;;1.46;nan;99805.94;5133478;27;20412;-71
2021/12/08 06:43:07;;;;;;;37.80;20.83;;;;;;;1.70;nan;99852.50;5133418;27;20420;-72
2021/12/08 06:45:36;;;;;;;31.97;17.47;;;;;;;1.44;nan;99828.78;5132338;27;20422;-71
2021/12/08 06:48:05;;;;;;;32.70;17.93;;;;;;;1.78;nan;99807.53;5134369;27;20419;-71
2021/12/08 06:50:40;;;;;;;22.10;10.90;;;;;;;1.44;nan;99824.41;5133441;27;20448;-72
2021/12/08 06:53:06;;;;;;;30.10;16.63;;;;;;;1.62;nan;99848.41;5134665;27;20705;-71
2021/12/08 06:55:38;;;;;;;39.37;19.23;;;;;;;1.94;nan;99808.75;5132988;27;20500;-72
2021/12/08 06:58:07;;;;;;;31.77;16.67;;;;;;;1.53;nan;99834.66;5133463;27;20847;-71
2021/12/08 07:00:59;;;;;;;39.03;18.40;;;;;;;2.00;nan;99823.47;5133577;28;20490;-72
2021/12/08 07:03:36;;;;;;;30.50;17.93;;;;;;;1.78;nan;99855.75;5133715;28;20412;-72
2021/12/08 07:06:12;;;;;;;33.50;15.70;;;;;;;1.95;nan;99814.88;5133077;28;20818;-71
2021/12/08 07:08:51;;;;;;;31.60;16.97;;;;;;;2.09;nan;99824.00;5133141;28;20393;-71
2021/12/08 07:11:20;;;;;;;34.57;18.53;;;;;;;1.92;nan;99823.72;5133067;28;20447;-71
2021/12/08 07:13:46;;;;;;;35.87;18.00;;;;;;;1.91;nan;99845.69;5133219;28;20925;-72
2021/12/08 07:16:17;;;;;;;31.53;15.77;;;;;;;1.81;nan;99829.31;5132773;28;20421;-71
2021/12/08 07:18:54;;;;;;;27.57;14.47;;;;;;;1.91;nan;99840.44;5134097;27;20162;-71
2021/12/08 07:21:26;;;;;;;28.40;16.03;;;;;;;1.46;nan;99812.06;5132976;28;20384;-71
2021/12/08 07:23:56;;;;;;;38.80;18.60;;;;;;;1.92;nan;99823.72;5132679;28;20412;-72
2021/12/08 07:26:26;;;;;;;39.17;17.77;;;;;;;2.23;nan;99820.91;5115201;28;20425;-71
2021/12/08 07:28:53;;;;;;;33.73;18.13;;;;;;;2.34;nan;99807.38;5133596;27;20436;-72
2021/12/08 07:31:28;;;;;;;27.47;14.70;;;;;;;1.84;nan;99788.91;5114987;28;20441;-72
2021/12/08 07:33:54;;;;;;;35.17;16.20;;;;;;;1.73;nan;99783.16;5133701;27;20889;-72
2021/12/08 07:36:21;;;;;;;30.97;17.30;;;;;;;1.59;nan;99828.31;5134136;27;20855;-72
2021/12/08 07:38:50;;;;;;;27.93;15.53;;;;;;;1.65;nan;99788.66;5133070;28;20427;-72
2021/12/08 07:41:19;;;;;;;25.77;13.83;;;;;;;1.86;nan;99837.09;5133420;28;20771;-72
2021/12/08 07:43:48;;;;;;;23.17;10.47;;;;;;;1.62;nan;99808.94;5133120;28;20409;-72
2021/12/08 07:46:20;;;;;;;32.30;16.40;;;;;;;2.07;nan;99824.97;5133907;27;20540;-72
2021/12/08 07:48:58;;;;;;;29.73;16.17;;;;;;;2.21;nan;99775.31;5134302;27;20918;-72
2021/12/08 07:51:30;;;;;;;30.27;16.07;;;;;;;1.81;nan;99791.63;5132393;28;20480;-72
2021/12/08 07:53:58;;;;;;;31.53;17.03;;;;;;;2.62;nan;99825.69;5133632;27;20171;-72
2021/12/08 07:56:25;;;;;;;25.27;13.23;;;;;;;1.83;nan;99819.63;5134818;27;20436;-71
2021/12/08 07:58:59;;;;;;;26.30;14.17;;;;;;;1.45;nan;99806.84;5136215;27;20773;-73
2021/12/08 08:01:29;;;;;;;25.60;12.17;;;;;;;2.02;nan;99780.38;5136273;27;20413;-70
2021/12/08 08:03:55;;;;;;;32.80;16.77;;;;;;;2.24;nan;99774.38;5136452;27;20420;-72
2021/12/08 08:06:26;;;;;;;32.10;15.67;;;;;;;2.13;nan;99801.94;5135864;27;20436;-71
2021/12/08 08:08:51;;;;;;;30.27;15.03;;;;;;;2.09;nan;99783.66;5136389;27;20176;-72
2021/12/08 08:11:24;;;;;;;22.33;12.50;;;;;;;1.87;nan;99781.78;5136855;27;20440;-72
2021/12/08 08:13:50;;;;;;;34.30;16.30;;;;;;;1.98;nan;99794.56;5118869;27;20240;-72
2021/12/08 08:16:21;;;;;;;32.50;16.70;;;;;;;2.47;nan;99806.00;5136296;27;20436;-73
2021/12/08 08:18:55;;;;;;;20.90;11.67;;;;;;;2.11;nan;99792.38;5136720;27;20247;-72
2021/12/08 08:21:26;;;;;;;32.63;16.37;;;;;;;2.38;nan;99788.75;5137580;27;20446;-71
2021/12/08 08:23:52;;;;;;;17.93;11.07;;;;;;;1.77;nan;99801.41;5136574;27;20161;-72
2021/12/08 08:26:18;;;;;;;26.57;13.40;;;;;;;1.96;nan;99750.78;5135626;27;20602;-71
2021/12/08 08:28:48;;;;;;;25.43;14.17;;;;;;;2.19;nan;99785.06;5135902;27;20415;-69
2021/12/08 08:31:20;;;;;;;28.33;15.33;;;;;;;2.54;nan;99820.66;5135665;27;20188;-71
2021/12/08 08:33:45;;;;;;;27.03;13.23;;;;;;;1.65;nan;99790.44;5135757;27;20478;-71
2021/12/08 08:36:15;;;;;;;29.47;16.80;;;;;;;2.43;nan;99817.56;5137814;27;20197;-71
2021/12/08 08:38:46;;;;;;;27.30;14.17;;;;;;;2.08;nan;99793.31;5140146;27;20217;-71
2021/12/08 08:41:19;;;;;;;25.83;14.13;;;;;;;2.05;nan;99758.38;5146721;27;20393;-73
2021/12/08 08:43:45;;;;;;;27.43;14.73;;;;;;;2.75;nan;99759.28;5142807;27;20477;-73
2021/12/08 08:46:19;;;;;;;30.23;17.47;;;;;;;3.21;nan;99793.56;5135802;27;20193;-71
2021/12/08 08:48:52;;;;;;;22.80;12.03;;;;;;;1.98;nan;99744.56;5118757;27;20947;-71
2021/12/08 08:51:24;;;;;;;22.70;12.83;;;;;;;2.24;nan;99782.28;5135748;27;20457;-71
2021/12/08 08:53:51;;;;;;;29.37;15.37;;;;;;;2.77;nan;99756.59;5136872;27;20221;-71
2021/12/08 08:56:30;;;;;;;22.63;13.20;;;;;;;2.18;nan;99713.09;5135716;27;20662;-71
2021/12/08 08:59:00;;;;;;;24.73;14.23;;;;;;;1.98;nan;99710.34;5136944;27;20393;-70
2021/12/08 09:01:33;;;;;;;27.33;15.37;;;;;;;2.98;nan;99778.66;5136616;27;20522;-71
2021/12/08 09:04:16;;;;;;;27.20;14.83;;;;;;;2.53;nan;99744.34;5135458;27;20172;-71
2021/12/08 09:06:44;;;;;;;23.70;12.30;;;;;;;2.07;nan;99732.84;5136024;27;20568;-72
2021/12/08 09:09:14;;;;;;;21.37;12.70;;;;;;;2.35;nan;99783.59;5134793;27;20184;-71
2021/12/08 09:11:49;;;;;;;29.97;16.10;;;;;;;2.44;nan;99780.63;5137228;27;20168;-70
2021/12/08 09:14:21;;;;;;;29.77;16.40;;;;;;;2.77;nan;99775.03;5136453;27;20401;-71
2021/12/08 09:16:49;;;;;;;21.40;11.33;;;;;;;1.84;nan;99760.81;5137392;27;20513;-71
2021/12/08 09:19:25;;;;;;;26.77;14.23;;;;;;;2.08;nan;99777.53;5138324;27;20500;-71
2021/12/08 09:22:05;;;;;;;27.90;14.23;;;;;;;2.23;nan;99731.41;5136223;27;20445;-71
2021/12/08 09:24:44;;;;;;;23.83;11.23;;;;;;;2.66;nan;99751.72;5136272;27;20704;-71
2021/12/08 09:27:11;;;;;;;26.77;13.10;;;;;;;1.54;nan;99712.75;5137371;27;20416;-72
2021/12/08 09:29:45;;;;;;;21.97;9.47;;;;;;;1.71;nan;99706.06;5136051;27;20443;-70
2021/12/08 09:32:18;;;;;;;28.40;14.53;;;;;;;2.43;nan;99743.81;5135404;27;20400;-72
2021/12/08 09:34:55;;;;;;;28.40;15.40;;;;;;;1.97;nan;99692.84;5135796;27;20946;-71
2021/12/08 09:37:22;;;;;;;31.60;13.27;;;;;;;2.60;nan;99701.91;5135651;27;20416;-71
2021/12/08 09:39:55;;;;;;;30.47;16.70;;;;;;;2.58;nan;99737.97;5118769;27;20444;-71
2021/12/08 09:42:23;;;;;;;26.17;13.73;;;;;;;1.93;nan;99738.59;5137370;27;20164;-72
2021/12/08 09:44:55;;;;;;;29.00;15.60;;;;;;;2.66;nan;99733.28;5135836;27;20798;-70
2021/12/08 09:47:21;;;;;;;21.63;12.53;;;;;;;1.67;nan;99697.41;5134401;27;20171;-71
2021/12/08 09:49:49;;;;;;;22.87;12.10;;;;;;;2.41;nan;99706.16;5134386;27;20489;-72
2021/12/08 09:52:17;;;;;;;22.30;12.77;;;;;;;2.22;nan;99728.78;5118027;27;20179;-72
2021/12/08 09:54:42;;;;;;;31.73;12.50;;;;;;;2.03;nan;99732.09;5136155;27;20202;-72
2021/12/08 09:57:12;;;;;;;26.03;13.17;;;;;;;2.54;nan;99696.00;5117856;27;20172;-72
2021/12/08 09:59:45;;;;;;;30.20;15.80;;;;;;;3.19;nan;99740.00;5134997;27;20260;-70
2021/12/08 10:02:10;;;;;;;28.03;16.13;;;;;;;2.94;nan;99708.47;5135999;27;20855;-73
2021/12/08 10:04:36;;;;;;;17.07;10.80;;;;;;;2.33;nan;99698.53;5135763;27;20193;-71
2021/12/08 10:07:03;;;;;;;32.30;15.70;;;;;;;2.60;nan;99741.44;5134684;27;20165;-72
2021/12/08 10:09:28;;;;;;;29.17;13.97;;;;;;;2.19;nan;99740.28;5134781;27;20181;-72
2021/12/08 10:11:54;;;;;;;29.27;15.60;;;;;;;2.18;nan;99722.78;5134113;27;20195;-71
2021/12/08 10:14:21;;;;;;;29.80;15.87;;;;;;;2.74;nan;99739.13;5134161;27;20177;-72
2021/12/08 10:16:47;;;;;;;31.07;14.17;;;;;;;2.60;nan;99757.25;5135268;27;20572;-72
2021/12/08 10:19:14;;;;;;;36.70;17.47;;;;;;;2.80;nan;99749.44;5136830;27;20413;-72
2021/12/08 10:21:41;;;;;;;29.93;16.87;;;;;;;2.97;nan;99745.25;5136158;27;20198;-72
2021/12/08 10:24:20;;;;;;;31.93;16.13;;;;;;;2.82;nan;99726.50;5137527;27;20222;-72
2021/12/08 10:26:47;;;;;;;33.67;15.87;;;;;;;2.64;nan;99740.41;5135327;27;20416;-71
2021/12/08 10:29:13;;;;;;;21.40;12.23;;;;;;;1.99;nan;99712.06;5134030;27;20206;-71
2021/12/08 10:31:47;;;;;;;31.27;16.50;;;;;;;3.08;nan;99748.38;5133800;27;20175;-71
2021/12/08 10:36:45;;;;;;;32.37;16.00;;;;;;;2.60;nan;99732.63;5133936;27;20167;-71
2021/12/08 10:39:15;;;;;;;31.67;15.43;;;;;;;2.28;nan;99724.19;5135053;27;20402;-71
2021/12/08 10:41:58;;;;;;;29.17;14.30;;;;;;;2.70;nan;99753.34;5133432;27;20279;-72
2021/12/08 10:44:25;;;;;;;34.83;16.07;;;;;;;2.53;nan;99718.00;5135027;27;20172;-72
2021/12/08 10:46:55;;;;;;;28.40;14.53;;;;;;;2.30;nan;99714.47;5135189;27;20169;-71
2021/12/08 10:54:53;;;;;;;30.90;16.03;;;;;;;1.47;nan;99700.69;5134803;27;20573;-71
2021/12/08 10:57:30;;;;;;;33.40;17.13;;;;;;;2.70;nan;99711.19;5134884;27;20408;-72
2021/12/08 10:59:58;;;;;;;36.13;17.70;;;;;;;2.78;nan;99713.50;5134777;27;20149;-71
2021/12/08 11:02:48;;;;;;;25.17;13.97;;;;;;;2.25;nan;99665.53;5117692;28;20495;-72
2021/12/08 11:05:26;;;;;;;31.07;14.67;;;;;;;2.51;nan;99694.34;5135807;28;20204;-76
2021/12/08 11:08:04;;;;;;;28.07;14.47;;;;;;;2.73;nan;99726.88;5136108;27;20634;-72
2021/12/08 11:10:31;;;;;;;23.07;12.27;;;;;;;2.66;nan;99693.78;5135941;27;20184;-71
2021/12/08 11:12:57;;;;;;;32.13;16.50;;;;;;;2.36;nan;99702.84;5134266;28;20173;-72
2021/12/08 11:15:24;;;;;;;30.63;14.80;;;;;;;2.32;nan;99693.34;5133491;28;20245;-70
2021/12/08 11:18:16;;;;;;;26.57;12.47;;;;;;;2.12;nan;99673.00;5133264;28;20416;-72
2021/12/08 11:20:59;;;;;;;37.37;17.47;;;;;;;2.79;nan;99662.53;5135235;27;20440;-72
2021/12/08 11:23:40;;;;;;;26.00;13.27;;;;;;;2.63;nan;99669.31;5134730;27;20194;-72
2021/12/08 11:26:11;;;;;;;37.63;16.33;;;;;;;2.95;nan;99703.16;5140963;27;20211;-72
2021/12/08 11:28:36;;;;;;;32.60;16.67;;;;;;;2.85;nan;99682.50;5137966;28;20188;-74
2021/12/08 11:31:14;;;;;;;31.30;14.63;;;;;;;2.69;nan;99698.06;5144478;27;20192;-72
2021/12/08 11:33:44;;;;;;;32.77;16.70;;;;;;;2.51;nan;99679.41;5141359;27;20153;-71
2021/12/08 11:36:12;;;;;;;27.20;13.13;;;;;;;2.33;nan;99716.13;5139383;27;20195;-71
2021/12/08 11:38:40;;;;;;;35.97;16.90;;;;;;;2.86;nan;99718.47;5138631;27;20225;-71
2021/12/08 11:41:10;;;;;;;27.63;12.77;;;;;;;2.39;nan;99700.09;5136850;27;20221;-71
2021/12/08 11:43:35;;;;;;;35.40;16.33;;;;;;;2.67;nan;99658.59;5138612;27;20275;-71
2021/12/08 11:46:15;;;;;;;35.77;17.73;;;;;;;3.30;nan;99674.50;5138327;27;20189;-72
2021/12/08 11:49:11;;;;;;;40.53;18.33;;;;;;;3.25;nan;99714.25;5138534;27;20168;-72
2021/12/08 11:51:41;;;;;;;36.27;18.70;;;;;;;3.12;nan;99713.03;5124893;27;20221;-71
2021/12/08 11:54:07;;;;;;;37.33;16.53;;;;;;;2.51;nan;99674.13;5136984;27;20185;-72
2021/12/08 11:56:36;;;;;;;32.83;16.50;;;;;;;2.98;nan;99702.19;5120020;27;20244;-72
2021/12/08 11:59:04;;;;;;;36.27;18.63;;;;;;;3.00;nan;99705.63;5137705;27;20165;-73
2021/12/08 12:01:29;;;;;;;35.97;17.80;;;;;;;2.77;nan;99670.50;5141232;27;20638;-72
2021/12/08 12:03:55;;;;;;;42.03;19.33;;;;;;;2.93;nan;99712.03;5141819;27;20173;-72
2021/12/08 12:06:27;;;;;;;41.93;15.40;;;;;;;1.94;nan;99660.53;5150770;22;20612;-72
2021/12/08 12:08:54;;;;;;;38.77;16.67;;;;;;;3.18;nan;99707.53;5120476;27;20683;-71
2021/12/08 12:11:23;;;;;;;38.57;16.57;;;;;;;2.95;nan;99681.22;5119658;27;20818;-71
2021/12/08 12:13:48;;;;;;;39.13;19.83;;;;;;;2.78;nan;99685.38;5102092;27;20221;-72
2021/12/08 12:16:14;;;;;;;31.17;16.30;;;;;;;2.65;nan;99709.66;5119050;27;20273;-72
2021/12/08 12:18:39;;;;;;;33.77;17.40;;;;;;;2.66;nan;99691.13;5119234;27;20583;-72
2021/12/08 12:21:15;;;;;;;36.73;17.40;;;;;;;2.83;nan;99724.72;5119176;27;20177;-72
2021/12/08 12:23:54;;;;;;;29.40;13.77;;;;;;;2.76;nan;99695.13;5119645;27;20212;-72
2021/12/08 12:26:45;;;;;;;40.97;19.17;;;;;;;3.47;nan;99693.13;5102214;27;20226;-72
2021/12/08 12:29:36;;;;;;;33.20;15.63;;;;;;;2.40;nan;99707.06;5118987;27;20184;-71
2021/12/08 12:32:37;;;;;;;43.20;19.77;;;;;;;2.53;nan;99670.56;5118713;27;20184;-71
2021/12/08 12:35:25;;;;;;;43.80;19.07;;;;;;;3.28;nan;99732.59;5093584;27;20212;-72
2021/12/08 12:38:01;;;;;;;39.20;20.53;;;;;;;3.11;nan;99704.28;5101737;27;20681;-70
2021/12/08 12:40:36;;;;;;;41.13;19.33;;;;;;;2.88;nan;99735.09;5102277;27;20161;-71